KBRL/BRL METAR and TAF weather

Enter ICAO airport designator
Station Type Date Time Source
KBRL METAR 2021/02/28 02:53 UTC NOAA

KBRL 280253Z AUTO 12011KT 10SM CLR 07/04 A2990 RMK AO2 SLP129 T00670039 58009


Station Type Date Time Source
KBRL Decoded METAR 2021/02/28 02:53 UTC NOAA

BURLINGTON REGIONAL AIRPORT, IA, United States (KBRL) 40-46N 91-08W 211M
Feb 27, 2021 - 09:53 PM EST / 2021.02.28 0253 UTC
Wind: from the ESE (120 degrees) at 13 MPH (11 KT):0
Visibility: 10 mile(s):0
Sky conditions: clear
Temperature: 44.1 F (6.7 C)
Dew Point: 39.0 F (3.9 C)
Relative Humidity: 82%
Pressure (altimeter): 29.9 in. Hg (1012 hPa)
Pressure tendency: 0.03 inches (0.9 hPa) lower than three hours ago
ob: KBRL 280253Z AUTO 12011KT 10SM CLR 07/04 A2990 RMK AO2 SLP129 T00670039 58009
cycle: 3

Station Type Date Time Source
KBRL TAF 2021/02/27 18:42 UTC NOAA

TAF KBRL 271740Z 2718/2818 20007KT P6SM SKC
FM272100 13008KT P6SM FEW020 BKN250
FM280600 14008KT P6SM BKN017
FM280900 17005KT P6SM BKN008
FM281200 20006KT P6SM BKN009

Example: see airport list